KAPA/APA METAR and TAF weather

Enter ICAO airport designator
Station Type Date Time Source
KAPA METAR 2019/08/25 12:53 UTC NOAA

KAPA 251253Z 24008KT 10SM SCT130 BKN220 18/06 A3005 RMK AO2 SLP101 T01830056


Station Type Date Time Source
KAPA Decoded METAR 2019/08/25 12:53 UTC NOAA

Station name not available
Aug 25, 2019 - 08:53 AM EDT / 2019.08.25 1253 UTC
Wind: from the WSW (240 degrees) at 9 MPH (8 KT):0
Visibility: 10 mile(s):0
Sky conditions: mostly cloudy
Temperature: 64.9 F (18.3 C)
Dew Point: 42.1 F (5.6 C)
Relative Humidity: 43%
Pressure (altimeter): 30.05 in. Hg (1017 hPa)
ob: KAPA 251253Z 24008KT 10SM SCT130 BKN220 18/06 A3005 RMK AO2 SLP101 T01830056
cycle: 13

Station Type Date Time Source
KAPA TAF 2019/08/25 12:22 UTC NOAA

TAF KAPA 251120Z 2512/2612 19006KT P6SM SCT200
FM251500 26010KT P6SM SCT200
FM251900 34012KT P6SM FEW120
FM260200 22008KT P6SM FEW120
FM261000 31010KT P6SM SKC

Example: see airport list